createdAt,value
2018-08-19T00:00:31.925Z,19.40
2018-08-19T00:01:31.899Z,19.10
2018-08-19T00:02:31.926Z,18.90
2018-08-19T00:03:31.954Z,20.10
2018-08-19T00:04:31.995Z,20.60
2018-08-19T00:05:31.926Z,20.00
2018-08-19T00:06:31.936Z,20.40
2018-08-19T00:07:31.933Z,19.00
2018-08-19T00:08:31.897Z,20.80
2018-08-19T00:09:31.903Z,20.80
2018-08-19T00:10:31.974Z,18.70
2018-08-19T00:11:31.892Z,21.00
2018-08-19T00:12:31.954Z,18.90
2018-08-19T00:13:31.904Z,19.60
2018-08-19T00:14:31.943Z,19.60
2018-08-19T00:15:31.876Z,20.00
2018-08-19T00:16:31.914Z,20.10
2018-08-19T00:17:31.875Z,20.30
2018-08-19T00:18:31.805Z,21.00
2018-08-19T00:19:31.907Z,20.70
2018-08-19T00:20:31.889Z,20.10
2018-08-19T00:21:31.922Z,19.70
2018-08-19T00:22:31.457Z,18.80
2018-08-19T00:23:31.889Z,20.40
2018-08-19T00:24:31.879Z,19.30
2018-08-19T00:25:31.868Z,20.40
2018-08-19T00:26:31.912Z,20.70
2018-08-19T00:27:31.862Z,20.90
2018-08-19T00:28:31.921Z,20.40
2018-08-19T00:29:31.848Z,20.10
2018-08-19T00:30:31.918Z,21.30
2018-08-19T00:31:31.868Z,21.20
2018-08-19T00:32:31.930Z,20.00
2018-08-19T00:33:31.939Z,20.00
2018-08-19T00:34:31.947Z,20.60
2018-08-19T00:35:31.934Z,20.70
2018-08-19T00:36:31.926Z,21.70
2018-08-19T00:37:31.931Z,21.30
2018-08-19T00:38:31.887Z,21.90
2018-08-19T00:39:31.959Z,21.10
2018-08-19T00:40:31.911Z,20.50
2018-08-19T00:41:31.949Z,21.10
2018-08-19T00:42:31.445Z,19.90
2018-08-19T00:43:31.950Z,20.80
2018-08-19T00:44:31.892Z,21.20
2018-08-19T00:45:31.940Z,21.60
2018-08-19T00:46:31.884Z,21.90
2018-08-19T00:47:31.895Z,21.40
2018-08-19T00:48:31.950Z,21.10
2018-08-19T00:49:31.917Z,21.80
2018-08-19T00:50:31.871Z,20.80
2018-08-19T00:51:31.424Z,21.40
2018-08-19T00:52:31.923Z,19.40
2018-08-19T00:53:31.930Z,20.20
2018-08-19T00:54:31.911Z,20.40
2018-08-19T00:55:31.928Z,19.70
2018-08-19T00:57:31.921Z,21.70
2018-08-19T00:58:31.857Z,20.10
2018-08-19T00:59:31.932Z,21.40
2018-08-19T01:00:31.915Z,21.70
2018-08-19T01:01:31.873Z,20.80
2018-08-19T01:02:31.915Z,20.60
2018-08-19T01:03:31.894Z,21.20
2018-08-19T01:04:31.921Z,21.60
2018-08-19T01:05:31.939Z,21.70
2018-08-19T01:06:31.917Z,21.30
2018-08-19T01:07:31.916Z,21.10
2018-08-19T01:08:31.940Z,20.70
2018-08-19T01:09:31.936Z,19.70
2018-08-19T01:10:31.898Z,21.30
2018-08-19T01:11:31.853Z,21.80
2018-08-19T01:12:33.789Z,22.30
2018-08-19T01:13:31.933Z,22.40
2018-08-19T01:14:31.944Z,22.70
2018-08-19T01:15:31.948Z,21.60
2018-08-19T01:16:31.926Z,22.10
2018-08-19T01:17:31.873Z,21.40
2018-08-19T01:18:31.964Z,21.70
2018-08-19T01:19:31.971Z,21.70
2018-08-19T01:20:31.958Z,22.00
2018-08-19T01:21:33.761Z,22.00
2018-08-19T01:22:31.990Z,20.90
2018-08-19T01:23:31.971Z,21.90
2018-08-19T01:24:31.990Z,22.80
2018-08-19T01:25:31.975Z,23.40
2018-08-19T01:26:31.996Z,23.60
2018-08-19T01:27:31.964Z,21.80
2018-08-19T01:28:32.004Z,21.70
2018-08-19T01:29:32.103Z,22.10
2018-08-19T01:30:31.887Z,22.20
2018-08-19T01:31:31.985Z,20.60
2018-08-19T01:32:34.109Z,20.70
2018-08-19T01:33:31.845Z,20.50
2018-08-19T01:34:31.913Z,20.80
2018-08-19T01:35:31.894Z,21.20
2018-08-19T01:36:31.960Z,21.70
2018-08-19T01:37:31.891Z,22.10
2018-08-19T01:38:31.921Z,20.40
2018-08-19T01:39:31.885Z,22.00
2018-08-19T01:40:31.923Z,21.00
2018-08-19T01:41:31.902Z,20.30
2018-08-19T01:42:31.953Z,21.70
2018-08-19T01:43:31.950Z,20.90
2018-08-19T01:44:32.005Z,21.90
2018-08-19T01:45:33.755Z,20.80
2018-08-19T01:46:31.933Z,21.20
2018-08-19T01:47:31.934Z,20.30
2018-08-19T01:48:32.005Z,20.70
2018-08-19T01:49:31.960Z,20.80
2018-08-19T01:50:33.725Z,21.40
2018-08-19T01:51:31.997Z,21.90
2018-08-19T01:52:31.922Z,22.40
2018-08-19T01:53:31.954Z,23.20
2018-08-19T01:54:31.921Z,22.40
2018-08-19T01:55:31.992Z,21.60
2018-08-19T01:56:33.752Z,21.20
2018-08-19T01:57:31.946Z,23.10
2018-08-19T01:58:31.953Z,21.10
2018-08-19T01:59:34.139Z,21.80
2018-08-19T02:00:31.935Z,23.70
2018-08-19T02:01:31.962Z,21.80
2018-08-19T02:02:31.883Z,22.80
2018-08-19T02:03:33.765Z,21.70
2018-08-19T02:04:31.969Z,21.70
2018-08-19T02:05:31.896Z,21.70
2018-08-19T02:06:31.974Z,22.20
2018-08-19T02:07:31.937Z,21.60
2018-08-19T02:08:31.963Z,21.90
2018-08-19T02:09:31.894Z,22.50
2018-08-19T02:10:31.960Z,22.40
2018-08-19T02:11:31.892Z,22.60
2018-08-19T02:12:31.905Z,21.50
2018-08-19T02:13:31.959Z,21.50
2018-08-19T02:14:31.930Z,23.00
2018-08-19T02:15:31.292Z,21.20
2018-08-19T02:16:31.904Z,20.30
2018-08-19T02:17:31.946Z,21.10
2018-08-19T02:18:31.912Z,21.00
2018-08-19T02:19:31.906Z,22.10
2018-08-19T02:20:31.956Z,22.30
2018-08-19T02:22:31.981Z,22.70
2018-08-19T02:23:31.966Z,22.30
2018-08-19T02:24:31.956Z,22.30
2018-08-19T02:25:31.925Z,22.30
2018-08-19T02:26:31.957Z,21.80
2018-08-19T02:27:31.934Z,21.70
2018-08-19T02:28:31.955Z,22.40
2018-08-19T02:29:31.972Z,21.00
2018-08-19T02:30:32.013Z,22.10
2018-08-19T02:31:32.015Z,21.20
2018-08-19T02:32:31.999Z,21.00
2018-08-19T02:33:34.141Z,21.30
2018-08-19T02:34:31.970Z,21.70
2018-08-19T02:35:31.950Z,20.50
2018-08-19T02:36:31.974Z,21.70
2018-08-19T02:37:32.007Z,21.40
2018-08-19T02:38:31.931Z,22.10
2018-08-19T02:39:31.984Z,22.40
2018-08-19T02:40:31.900Z,22.50
2018-08-19T02:41:31.979Z,22.40
2018-08-19T02:42:32.010Z,22.20
2018-08-19T02:43:32.124Z,22.70
2018-08-19T02:44:31.963Z,23.50
2018-08-19T02:46:32.010Z,23.10
2018-08-19T02:47:31.871Z,21.20
2018-08-19T02:48:31.675Z,21.80
2018-08-19T02:49:31.676Z,22.00
2018-08-19T02:50:31.644Z,22.70
2018-08-19T02:51:31.666Z,22.40
2018-08-19T02:52:32.144Z,21.00
2018-08-19T02:53:31.653Z,23.60
2018-08-19T02:54:31.610Z,22.80
2018-08-19T02:55:31.575Z,22.40
2018-08-19T02:56:31.688Z,23.50
2018-08-19T02:57:31.625Z,23.30
2018-08-19T02:58:31.619Z,22.30
2018-08-19T02:59:31.636Z,22.90
2018-08-19T03:00:31.315Z,22.00
2018-08-19T03:01:31.596Z,21.10
2018-08-19T03:02:31.740Z,22.90
2018-08-19T03:03:31.673Z,22.30
2018-08-19T03:04:31.675Z,22.30
2018-08-19T03:05:31.645Z,22.90
2018-08-19T03:06:32.148Z,21.80
2018-08-19T03:07:32.013Z,22.00
2018-08-19T03:08:31.728Z,21.70
2018-08-19T03:09:31.708Z,22.70
2018-08-19T03:10:31.668Z,24.10
2018-08-19T03:11:31.667Z,23.00
2018-08-19T03:12:31.672Z,21.70
2018-08-19T03:13:31.630Z,22.80
2018-08-19T03:14:31.742Z,22.80
2018-08-19T03:16:31.648Z,23.70
2018-08-19T03:17:31.772Z,21.30
2018-08-19T03:18:31.769Z,22.30
2018-08-19T03:19:31.790Z,21.80
2018-08-19T03:20:33.432Z,23.00
2018-08-19T03:21:31.721Z,22.70
2018-08-19T03:22:31.771Z,22.30
2018-08-19T03:23:31.779Z,23.80
2018-08-19T03:24:31.708Z,22.50
2018-08-19T03:25:31.834Z,22.40
2018-08-19T03:26:31.691Z,22.50
2018-08-19T03:27:31.518Z,21.40
2018-08-19T03:28:31.581Z,22.10
2018-08-19T03:29:31.676Z,21.90
2018-08-19T03:30:31.546Z,21.00
2018-08-19T03:31:31.673Z,22.50
2018-08-19T03:32:31.590Z,22.80
2018-08-19T03:33:31.764Z,21.90
2018-08-19T03:34:31.522Z,22.90
2018-08-19T03:35:31.612Z,22.80
2018-08-19T03:36:31.670Z,23.90
2018-08-19T03:37:31.465Z,23.30
2018-08-19T03:38:31.556Z,22.50
2018-08-19T03:39:31.505Z,21.90
2018-08-19T03:40:31.486Z,21.50
2018-08-19T03:41:31.517Z,21.90
2018-08-19T03:42:31.610Z,22.80
2018-08-19T03:43:31.608Z,22.00
2018-08-19T03:44:31.555Z,21.70
2018-08-19T03:45:31.539Z,22.60
2018-08-19T03:46:31.590Z,22.20
2018-08-19T03:47:32.158Z,21.40
2018-08-19T03:48:31.536Z,20.70
2018-08-19T03:49:31.580Z,21.20
2018-08-19T03:50:31.613Z,20.90
2018-08-19T03:51:31.673Z,21.20
2018-08-19T03:52:31.596Z,21.20
2018-08-19T03:53:31.543Z,21.90
2018-08-19T03:54:31.612Z,22.40
2018-08-19T03:55:31.577Z,21.30
2018-08-19T03:56:31.565Z,21.10
2018-08-19T03:57:33.405Z,21.50
2018-08-19T03:58:31.603Z,20.90
2018-08-19T03:59:31.593Z,21.30
2018-08-19T04:00:31.651Z,21.60
2018-08-19T04:01:33.670Z,23.00
2018-08-19T04:02:31.681Z,22.00
2018-08-19T04:03:31.621Z,21.80
2018-08-19T04:04:31.534Z,22.30
2018-08-19T04:05:31.523Z,21.70
2018-08-19T04:06:31.648Z,21.90
2018-08-19T04:07:31.490Z,21.90
2018-08-19T04:08:31.166Z,22.10
2018-08-19T04:09:31.515Z,21.90
2018-08-19T04:10:31.522Z,20.20
2018-08-19T04:11:31.465Z,23.00
2018-08-19T04:12:31.619Z,23.20
2018-08-19T04:13:31.553Z,23.20
2018-08-19T04:14:31.479Z,23.90
2018-08-19T04:15:31.542Z,23.30
2018-08-19T04:16:31.580Z,23.30
2018-08-19T04:17:31.449Z,22.90
2018-08-19T04:18:31.457Z,23.00
2018-08-19T04:19:31.553Z,23.20
2018-08-19T04:20:31.585Z,22.90
2018-08-19T04:21:31.539Z,23.80
2018-08-19T04:22:31.548Z,23.50
2018-08-19T04:23:31.631Z,23.90
2018-08-19T04:24:31.526Z,22.40
2018-08-19T04:25:31.512Z,23.10
2018-08-19T04:26:31.612Z,23.90
2018-08-19T04:27:31.553Z,23.10
2018-08-19T04:28:31.463Z,24.30
2018-08-19T04:29:31.550Z,23.20
2018-08-19T04:30:31.596Z,22.30
2018-08-19T04:31:31.514Z,23.80
2018-08-19T04:32:31.514Z,22.60
2018-08-19T04:33:31.523Z,22.10
2018-08-19T04:34:31.467Z,24.10
2018-08-19T04:35:31.532Z,21.90
2018-08-19T04:36:31.536Z,22.20
2018-08-19T04:37:31.508Z,22.30
2018-08-19T04:38:31.687Z,23.20
2018-08-19T04:39:33.312Z,23.50
2018-08-19T04:40:31.549Z,22.40
2018-08-19T04:41:31.577Z,22.20
2018-08-19T04:42:31.540Z,21.30
2018-08-19T04:43:31.432Z,21.50
2018-08-19T04:44:31.497Z,21.70
2018-08-19T04:45:31.515Z,20.20
2018-08-19T04:46:31.078Z,20.80
2018-08-19T04:47:31.469Z,21.20
2018-08-19T04:48:31.485Z,22.60
2018-08-19T04:49:31.444Z,21.90
2018-08-19T04:50:31.515Z,23.40
2018-08-19T04:51:31.440Z,22.50
2018-08-19T04:52:31.488Z,21.70
2018-08-19T04:53:31.457Z,22.60
2018-08-19T04:54:31.537Z,22.30
2018-08-19T04:55:31.505Z,22.50
2018-08-19T04:56:31.532Z,22.90
2018-08-19T04:57:31.527Z,22.40
2018-08-19T04:58:31.429Z,23.00
2018-08-19T04:59:31.483Z,21.80
2018-08-19T05:00:31.206Z,21.00
2018-08-19T05:02:31.558Z,21.20
2018-08-19T05:03:31.529Z,22.40
2018-08-19T05:04:33.709Z,22.20
2018-08-19T05:05:31.497Z,22.10
2018-08-19T05:06:31.469Z,22.00
2018-08-19T05:07:31.504Z,21.70
2018-08-19T05:08:31.480Z,22.40
2018-08-19T05:09:31.532Z,22.00
2018-08-19T05:10:31.517Z,22.30
2018-08-19T05:11:31.537Z,21.20
2018-08-19T05:12:31.538Z,20.80
2018-08-19T05:13:33.351Z,22.00
2018-08-19T05:14:31.525Z,21.70
2018-08-19T05:15:31.563Z,21.40
2018-08-19T05:16:31.469Z,20.40
2018-08-19T05:17:31.533Z,21.10
2018-08-19T05:18:31.523Z,21.90
2018-08-19T05:19:31.536Z,22.50
2018-08-19T05:20:31.501Z,21.60
2018-08-19T05:21:31.474Z,21.00
2018-08-19T05:22:31.561Z,20.80
2018-08-19T05:23:31.488Z,22.40
2018-08-19T05:24:31.473Z,21.60
2018-08-19T05:25:31.489Z,21.30
2018-08-19T05:26:31.458Z,21.30
2018-08-19T05:27:31.466Z,21.90
2018-08-19T05:28:31.553Z,20.90
2018-08-19T05:29:31.441Z,23.10
2018-08-19T05:30:31.521Z,21.30
2018-08-19T05:31:31.538Z,21.70
2018-08-19T05:32:31.476Z,21.50
2018-08-19T05:33:31.514Z,20.90
2018-08-19T05:34:31.450Z,22.50
2018-08-19T05:35:31.497Z,22.00
2018-08-19T05:36:31.491Z,22.00
2018-08-19T05:37:31.519Z,21.40
2018-08-19T05:38:31.530Z,20.20
2018-08-19T05:39:31.490Z,21.50
2018-08-19T05:40:33.706Z,20.80
2018-08-19T05:41:31.483Z,20.60
2018-08-19T05:42:31.528Z,19.50
2018-08-19T05:43:31.491Z,20.80
2018-08-19T05:44:31.504Z,19.80
2018-08-19T05:45:31.505Z,19.80
2018-08-19T05:46:33.351Z,20.50
2018-08-19T05:47:31.535Z,19.90
2018-08-19T05:48:31.533Z,19.40
2018-08-19T05:50:31.501Z,19.40
2018-08-19T05:51:31.534Z,19.40
2018-08-19T05:52:33.341Z,19.30
2018-08-19T05:53:31.534Z,21.00
2018-08-19T05:54:31.541Z,19.10
2018-08-19T05:55:31.559Z,19.70
2018-08-19T05:56:31.525Z,18.70
2018-08-19T05:57:31.513Z,18.30
2018-08-19T05:58:31.556Z,18.60
2018-08-19T05:59:31.480Z,18.40
2018-08-19T06:00:31.466Z,18.70
2018-08-19T06:01:31.485Z,18.60
2018-08-19T06:02:31.463Z,18.40
2018-08-19T06:03:31.444Z,17.70
2018-08-19T06:04:31.772Z,17.40
2018-08-19T06:05:31.426Z,18.20
2018-08-19T06:06:31.476Z,17.30
2018-08-19T06:07:31.520Z,16.80
2018-08-19T06:08:31.501Z,17.20
2018-08-19T06:09:31.485Z,17.90
2018-08-19T06:10:31.525Z,17.60
2018-08-19T06:11:31.471Z,16.80
2018-08-19T06:12:31.570Z,18.10
2018-08-19T06:13:31.492Z,17.20
2018-08-19T06:14:31.508Z,17.00
2018-08-19T06:15:31.517Z,17.50
2018-08-19T06:16:31.510Z,18.00
2018-08-19T06:17:31.542Z,17.60
2018-08-19T06:18:31.515Z,17.40
2018-08-19T06:19:31.476Z,18.10
2018-08-19T06:20:31.535Z,18.30
2018-08-19T06:21:31.461Z,17.20
2018-08-19T06:22:31.522Z,17.40
2018-08-19T06:23:31.494Z,17.40
2018-08-19T06:24:31.519Z,16.80
2018-08-19T06:25:31.496Z,17.00
2018-08-19T06:26:31.535Z,17.80
2018-08-19T06:27:31.531Z,17.60
2018-08-19T06:28:31.550Z,17.60
2018-08-19T06:29:31.560Z,16.70
2018-08-19T06:30:31.546Z,16.60
2018-08-19T06:31:31.524Z,16.40
2018-08-19T06:32:31.542Z,17.40
2018-08-19T06:33:31.534Z,16.90
2018-08-19T06:34:31.631Z,17.00
2018-08-19T06:35:31.536Z,16.80
2018-08-19T06:36:31.562Z,17.20
2018-08-19T06:37:31.449Z,17.50
2018-08-19T06:38:31.457Z,17.50
2018-08-19T06:39:31.476Z,17.10
2018-08-19T06:40:31.472Z,17.30
2018-08-19T06:41:31.428Z,17.80
2018-08-19T06:42:30.913Z,17.30
2018-08-19T06:43:31.496Z,16.60
2018-08-19T06:44:31.476Z,16.80
2018-08-19T06:45:31.455Z,16.60
2018-08-19T06:46:31.509Z,17.60
2018-08-19T06:47:31.486Z,16.50
2018-08-19T06:48:30.958Z,16.50
2018-08-19T06:49:31.479Z,17.10
2018-08-19T06:50:31.501Z,16.30
2018-08-19T06:51:31.530Z,16.00
2018-08-19T06:52:31.525Z,16.00
2018-08-19T06:53:31.524Z,14.50
2018-08-19T06:54:33.297Z,16.30
2018-08-19T06:55:31.522Z,16.00
2018-08-19T06:56:31.471Z,14.80
2018-08-19T06:57:31.486Z,15.40
2018-08-19T06:58:31.496Z,15.80
2018-08-19T06:59:31.532Z,15.60
2018-08-19T07:00:31.527Z,15.60
2018-08-19T07:01:31.537Z,14.10
2018-08-19T07:02:33.731Z,14.40
2018-08-19T07:03:31.640Z,14.00
2018-08-19T07:04:31.526Z,14.20
2018-08-19T07:05:31.515Z,14.10
2018-08-19T07:06:31.528Z,14.10
2018-08-19T07:07:31.572Z,13.60
2018-08-19T07:08:31.559Z,13.70
2018-08-19T07:09:38.001Z,14.20
2018-08-19T07:10:33.551Z,13.20
2018-08-19T07:11:31.586Z,12.70
2018-08-19T07:12:31.639Z,14.40
2018-08-19T07:13:33.425Z,12.40
2018-08-19T07:14:31.527Z,13.00
2018-08-19T07:15:31.601Z,12.60
2018-08-19T07:16:31.467Z,14.20
2018-08-19T07:17:31.482Z,12.10
2018-08-19T07:18:31.539Z,11.80
2018-08-19T07:19:31.520Z,12.10
2018-08-19T07:20:31.536Z,10.50
2018-08-19T07:21:31.539Z,10.70
2018-08-19T07:22:31.519Z,10.90
2018-08-19T07:23:31.515Z,10.40
2018-08-19T07:24:31.200Z,10.30
2018-08-19T07:25:31.226Z,11.10
2018-08-19T07:26:31.221Z,10.40
2018-08-19T07:27:58.551Z,11.60
2018-08-19T07:28:31.240Z,10.50
2018-08-19T07:29:31.220Z,11.00
2018-08-19T07:30:31.217Z,10.40
2018-08-19T07:31:31.228Z,10.10
2018-08-19T07:32:31.231Z,9.70
2018-08-19T07:33:31.207Z,9.60
2018-08-19T07:34:31.246Z,9.30
2018-08-19T07:35:31.238Z,8.30
2018-08-19T07:36:31.222Z,8.60
2018-08-19T07:37:31.233Z,8.20
2018-08-19T07:38:31.306Z,8.30
2018-08-19T07:39:31.219Z,8.10
2018-08-19T07:40:33.127Z,8.00
2018-08-19T07:41:30.901Z,8.30
2018-08-19T07:42:31.257Z,8.20
2018-08-19T07:43:31.249Z,9.00
2018-08-19T07:44:31.259Z,8.20
2018-08-19T07:45:31.224Z,8.60
2018-08-19T07:46:31.276Z,9.10
2018-08-19T07:47:31.301Z,8.30
2018-08-19T07:48:31.279Z,8.40
2018-08-19T07:49:31.278Z,8.20
2018-08-19T07:50:31.392Z,8.00
2018-08-19T07:51:33.090Z,7.80
2018-08-19T07:52:31.578Z,7.70
2018-08-19T07:53:31.313Z,7.90
2018-08-19T07:54:31.173Z,8.00
2018-08-19T07:55:31.229Z,7.90
2018-08-19T07:56:31.213Z,8.10
2018-08-19T07:57:30.823Z,8.10
2018-08-19T07:58:31.220Z,8.20
2018-08-19T07:59:31.173Z,8.00
2018-08-19T08:00:30.838Z,7.60
2018-08-19T08:01:31.276Z,8.10
2018-08-19T08:02:31.231Z,7.60
2018-08-19T08:03:31.235Z,7.60
2018-08-19T08:04:31.219Z,7.00
2018-08-19T08:05:31.215Z,7.20
2018-08-19T08:06:31.194Z,6.80
2018-08-19T08:07:31.227Z,6.30
2018-08-19T08:08:31.156Z,7.20
2018-08-19T08:09:31.157Z,7.20
2018-08-19T08:10:51.536Z,6.60
2018-08-19T08:11:31.219Z,6.40
2018-08-19T08:12:31.283Z,6.60
2018-08-19T08:13:31.229Z,6.30
2018-08-19T08:14:31.241Z,6.10
2018-08-19T08:15:31.225Z,6.40
2018-08-19T08:16:31.280Z,6.00
2018-08-19T08:17:31.252Z,6.20
2018-08-19T08:18:31.199Z,6.50
2018-08-19T08:19:31.344Z,6.30
2018-08-19T08:20:31.358Z,6.20
2018-08-19T08:21:31.375Z,6.10
2018-08-19T08:22:31.191Z,5.90
2018-08-19T08:24:05.418Z,6.40
2018-08-19T08:24:31.126Z,6.10
2018-08-19T08:25:31.231Z,6.70
2018-08-19T08:26:31.196Z,6.80
2018-08-19T08:27:31.505Z,6.70
2018-08-19T08:28:31.361Z,6.20
2018-08-19T08:29:31.444Z,6.20
2018-08-19T08:30:31.416Z,6.30
2018-08-19T08:31:31.363Z,6.60
2018-08-19T08:32:31.414Z,6.80
2018-08-19T08:33:33.372Z,6.10
2018-08-19T08:36:04.524Z,6.30
2018-08-19T08:37:04.614Z,6.40
2018-08-19T08:38:58.191Z,6.10
2018-08-19T08:39:58.775Z,6.50
2018-08-19T08:40:58.515Z,6.60
2018-08-19T08:42:01.846Z,6.10
2018-08-19T08:42:58.477Z,6.50
2018-08-19T08:43:58.125Z,5.90
2018-08-19T08:44:58.476Z,6.20
2018-08-19T08:45:58.791Z,6.20
2018-08-19T08:46:58.471Z,6.20
2018-08-19T08:47:58.921Z,5.80
2018-08-19T08:48:58.072Z,5.70
2018-08-19T08:49:58.823Z,5.70
2018-08-19T08:50:58.791Z,5.70
2018-08-19T08:51:58.827Z,6.30
2018-08-19T08:52:58.809Z,5.70
2018-08-19T08:53:58.432Z,6.30
2018-08-19T08:54:58.802Z,6.10
2018-08-19T08:55:58.824Z,6.30
2018-08-19T08:56:58.808Z,6.40
2018-08-19T08:57:58.829Z,6.70
2018-08-19T09:00:32.180Z,6.50
2018-08-19T09:01:32.179Z,5.80
2018-08-19T09:03:26.476Z,6.40
2018-08-19T09:04:26.206Z,6.50
2018-08-19T09:06:20.134Z,6.20
2018-08-19T09:07:20.352Z,6.80
2018-08-19T09:09:15.669Z,6.60
2018-08-19T09:10:16.032Z,6.80
2018-08-19T09:12:10.941Z,7.70
2018-08-19T09:13:10.964Z,8.30
2018-08-19T09:15:04.364Z,9.50
2018-08-19T09:16:05.101Z,10.50
2018-08-19T09:17:58.743Z,13.10
2018-08-19T09:18:58.897Z,13.30
2018-08-19T09:20:53.274Z,12.90
2018-08-19T09:21:53.522Z,13.10
2018-08-19T09:23:48.454Z,12.40
2018-08-19T09:24:48.907Z,11.40
2018-08-19T09:26:42.835Z,10.90
2018-08-19T09:27:42.875Z,11.10
2018-08-19T09:29:36.968Z,10.60
2018-08-19T09:30:37.067Z,10.80
2018-08-19T09:32:31.609Z,10.20
2018-08-19T09:33:32.341Z,9.50
2018-08-19T09:35:25.719Z,9.90
2018-08-19T09:36:25.852Z,9.50
2018-08-19T09:38:19.569Z,9.60
2018-08-19T09:39:19.970Z,9.60
2018-08-19T09:41:14.164Z,9.80
2018-08-19T09:42:14.543Z,9.80
2018-08-19T09:44:08.093Z,10.30
2018-08-19T09:45:07.960Z,9.40
2018-08-19T09:46:08.347Z,9.40
2018-08-19T09:47:08.045Z,9.70
2018-08-19T09:48:08.882Z,9.90
2018-08-19T09:49:07.557Z,9.70
2018-08-19T09:50:08.331Z,9.40
2018-08-19T09:51:08.339Z,9.90
2018-08-19T09:52:07.869Z,8.90
2018-08-19T09:53:08.340Z,9.20
2018-08-19T09:54:08.149Z,8.70
2018-08-19T09:55:08.457Z,8.50
2018-08-19T09:56:08.335Z,8.40
2018-08-19T09:57:08.022Z,9.30
2018-08-19T09:58:08.625Z,8.20
2018-08-19T09:59:08.359Z,8.10
2018-08-19T10:00:08.358Z,8.50
2018-08-19T10:01:08.023Z,8.40
2018-08-19T10:02:08.638Z,9.00
2018-08-19T10:03:08.470Z,8.90
2018-08-19T10:04:08.400Z,8.60
2018-08-19T10:05:08.409Z,8.50
2018-08-19T10:06:08.360Z,8.60
2018-08-19T10:07:08.408Z,9.30
2018-08-19T10:08:08.392Z,8.50
2018-08-19T10:09:08.408Z,8.70
2018-08-19T10:10:08.432Z,8.20
2018-08-19T10:11:08.356Z,8.60
2018-08-19T10:12:08.645Z,8.90
2018-08-19T10:13:09.104Z,8.90
2018-08-19T10:14:08.523Z,9.00
2018-08-19T10:15:08.926Z,8.60
2018-08-19T10:16:09.086Z,8.50
2018-08-19T10:17:08.022Z,8.30
2018-08-19T10:18:08.399Z,9.30
2018-08-19T10:19:08.403Z,9.10
2018-08-19T10:20:08.363Z,8.70
2018-08-19T10:21:08.364Z,9.00
2018-08-19T10:22:08.427Z,10.00
2018-08-19T10:23:08.413Z,9.80
2018-08-19T10:24:08.652Z,10.70
2018-08-19T10:25:08.569Z,9.90
2018-08-19T10:26:08.922Z,10.60
2018-08-19T10:27:08.346Z,10.00
2018-08-19T10:28:08.348Z,10.00
2018-08-19T10:29:08.350Z,10.10
2018-08-19T10:30:09.064Z,9.60
2018-08-19T10:31:07.964Z,9.60
2018-08-19T10:32:08.346Z,9.50
2018-08-19T10:33:08.397Z,9.90
2018-08-19T10:34:08.650Z,9.70
2018-08-19T10:35:08.363Z,10.00
2018-08-19T10:36:08.576Z,9.30
2018-08-19T10:37:08.648Z,9.60
2018-08-19T10:38:08.396Z,8.90
2018-08-19T10:39:08.409Z,9.10
2018-08-19T10:40:08.487Z,9.60
2018-08-19T10:41:08.914Z,9.30
2018-08-19T10:42:08.393Z,9.40
2018-08-19T10:43:08.398Z,9.40
2018-08-19T10:44:08.374Z,9.70
2018-08-19T10:45:08.419Z,9.20
2018-08-19T10:46:08.431Z,9.90
2018-08-19T10:48:08.372Z,9.70
2018-08-19T10:49:08.326Z,10.20
2018-08-19T10:50:08.420Z,9.60
2018-08-19T10:51:08.660Z,9.40
2018-08-19T10:52:09.088Z,9.20
2018-08-19T10:53:09.916Z,9.40
2018-08-19T10:54:08.344Z,8.50
2018-08-19T10:55:08.648Z,9.50
2018-08-19T10:56:08.479Z,9.50
2018-08-19T10:57:08.418Z,9.70
2018-08-19T10:58:08.431Z,9.40
2018-08-19T10:59:08.420Z,9.80
2018-08-19T11:00:08.437Z,10.20
2018-08-19T11:01:08.363Z,9.80
2018-08-19T11:02:08.478Z,9.60
2018-08-19T11:03:08.481Z,9.40
2018-08-19T11:04:08.358Z,10.30
2018-08-19T11:05:08.352Z,10.10
2018-08-19T11:06:08.386Z,10.80
2018-08-19T11:07:08.374Z,10.10
2018-08-19T11:08:08.394Z,9.70
2018-08-19T11:09:08.400Z,9.90
2018-08-19T11:10:08.366Z,10.10
2018-08-19T11:11:08.418Z,10.20
2018-08-19T11:12:08.391Z,9.60
2018-08-19T11:13:08.371Z,9.70
2018-08-19T11:14:08.669Z,10.60
2018-08-19T11:15:08.419Z,10.40
2018-08-19T11:16:08.422Z,10.20
2018-08-19T11:17:08.442Z,10.10
2018-08-19T11:18:08.358Z,10.30
2018-08-19T11:19:08.430Z,9.70
2018-08-19T11:20:08.392Z,9.60
2018-08-19T11:21:08.265Z,10.60
2018-08-19T11:22:08.491Z,10.00
2018-08-19T11:23:08.428Z,9.80
2018-08-19T11:24:08.584Z,9.80
2018-08-19T11:25:08.441Z,10.30
2018-08-19T11:26:08.632Z,9.90
2018-08-19T11:27:09.145Z,9.60
2018-08-19T11:28:08.953Z,10.30
2018-08-19T11:29:08.662Z,10.30
2018-08-19T11:30:08.456Z,10.40
2018-08-19T11:31:08.944Z,10.00
2018-08-19T11:32:08.956Z,9.40
2018-08-19T11:33:08.188Z,10.10
2018-08-19T11:34:08.455Z,9.30
2018-08-19T11:35:08.487Z,9.90
2018-08-19T11:36:08.217Z,10.90
2018-08-19T11:37:08.434Z,10.10
2018-08-19T11:38:08.175Z,9.70
2018-08-19T11:39:08.554Z,10.50
2018-08-19T11:40:08.566Z,11.20
2018-08-19T11:41:08.553Z,11.30
2018-08-19T11:42:08.573Z,11.10
2018-08-19T11:43:08.546Z,11.30
2018-08-19T11:44:08.542Z,11.50
2018-08-19T11:45:08.504Z,11.50
2018-08-19T11:46:08.538Z,11.70
2018-08-19T11:47:08.511Z,11.40
2018-08-19T11:48:08.407Z,11.60
2018-08-19T11:49:08.403Z,11.40
2018-08-19T11:50:08.401Z,11.50
2018-08-19T11:51:08.475Z,10.90
2018-08-19T11:52:08.505Z,11.30
2018-08-19T11:53:09.953Z,11.60
2018-08-19T11:54:08.631Z,11.50
2018-08-19T11:55:08.461Z,11.30
2018-08-19T11:56:08.546Z,11.40
2018-08-19T11:57:08.532Z,11.20
2018-08-19T11:58:08.611Z,11.30
2018-08-19T11:59:08.212Z,10.70
2018-08-19T12:00:08.531Z,10.40
2018-08-19T12:01:08.618Z,10.50
2018-08-19T12:02:08.648Z,10.60
2018-08-19T12:03:08.547Z,10.70
2018-08-19T12:04:08.615Z,10.70
2018-08-19T12:05:08.530Z,10.10
2018-08-19T12:06:10.382Z,9.90
2018-08-19T12:07:08.561Z,9.60
2018-08-19T12:08:09.122Z,9.90
2018-08-19T12:09:09.092Z,9.80
2018-08-19T12:10:08.327Z,9.90
2018-08-19T12:11:08.635Z,10.70
2018-08-19T12:12:08.627Z,9.50
2018-08-19T12:13:10.565Z,10.00
2018-08-19T12:14:08.703Z,10.00
2018-08-19T12:15:08.655Z,9.90
2018-08-19T12:16:08.655Z,9.20
2018-08-19T12:17:08.766Z,9.50
2018-08-19T12:18:08.659Z,9.60
2018-08-19T12:19:08.741Z,9.00
2018-08-19T12:20:08.493Z,9.10
2018-08-19T12:21:09.163Z,9.60
2018-08-19T12:22:08.673Z,8.70
2018-08-19T12:23:09.565Z,9.30
2018-08-19T12:24:08.937Z,9.50
2018-08-19T12:25:08.905Z,9.00
2018-08-19T12:26:08.959Z,9.60
2018-08-19T12:27:08.898Z,9.70
2018-08-19T12:28:08.939Z,9.50
2018-08-19T12:29:09.170Z,9.50
2018-08-19T12:30:08.992Z,9.10
2018-08-19T12:31:08.418Z,9.60
2018-08-19T12:32:09.465Z,9.30
2018-08-19T12:33:09.170Z,9.30
2018-08-19T12:34:09.169Z,9.60
2018-08-19T12:35:09.210Z,9.60
2018-08-19T12:36:08.979Z,9.30
2018-08-19T12:37:09.030Z,9.10
2018-08-19T12:38:08.932Z,8.60
2018-08-19T12:39:08.939Z,8.40
2018-08-19T12:40:08.996Z,8.60
2018-08-19T12:41:08.930Z,8.90
2018-08-19T12:42:08.980Z,9.30
2018-08-19T12:43:08.582Z,8.60
2018-08-19T12:44:08.950Z,8.40
2018-08-19T12:45:09.013Z,8.40
2018-08-19T12:46:08.965Z,8.40
2018-08-19T12:47:08.967Z,7.90
2018-08-19T12:48:08.955Z,8.50
2018-08-19T12:49:09.075Z,8.50
2018-08-19T12:50:09.049Z,8.50
2018-08-19T12:51:09.044Z,8.40
2018-08-19T12:52:09.134Z,8.30
2018-08-19T12:53:09.059Z,8.80
2018-08-19T12:54:09.064Z,9.00
2018-08-19T12:55:09.152Z,8.20
2018-08-19T12:56:09.224Z,8.20
2018-08-19T12:57:08.800Z,8.60
2018-08-19T12:59:09.010Z,7.70
2018-08-19T13:00:09.031Z,8.20
2018-08-19T13:01:09.125Z,8.40
2018-08-19T13:02:09.651Z,8.30
2018-08-19T13:03:09.295Z,8.70
2018-08-19T13:04:08.802Z,8.50
2018-08-19T13:05:09.444Z,8.50
2018-08-19T13:06:09.456Z,8.30
2018-08-19T13:07:09.199Z,9.00
2018-08-19T13:08:09.812Z,8.30
2018-08-19T13:09:09.652Z,8.00
2018-08-19T13:10:09.709Z,7.80
2018-08-19T13:11:08.904Z,7.90
2018-08-19T13:12:09.446Z,8.40
2018-08-19T13:13:09.459Z,8.70
2018-08-19T13:14:09.455Z,8.30
2018-08-19T13:15:09.480Z,8.40
2018-08-19T13:16:09.484Z,8.10
2018-08-19T13:17:08.978Z,8.40
2018-08-19T13:18:09.485Z,8.10
2018-08-19T13:19:09.480Z,8.20
2018-08-19T13:20:09.102Z,8.40
2018-08-19T13:21:09.483Z,8.30
2018-08-19T13:22:09.533Z,8.30
2018-08-19T13:23:09.493Z,8.60
2018-08-19T13:24:09.540Z,8.20
2018-08-19T13:25:09.523Z,7.60
2018-08-19T13:26:09.506Z,8.20
2018-08-19T13:27:09.491Z,7.60